ケフラヴィーク国際空港 の過去48時間の天気

ケフラヴィーク国際空港 (Keflavikurflugvollur)

現在時刻: 2/6 19:38 GMT (2/6 19:38 UTC) 以下の時間は現地時間です。

過去48時間のMETAR気象情報
時間 風向 風速(m/s) 視程 気温(℃) 湿度(%) 気圧(hPa) 天気現象
6 19:00 西南西 14 10km以上 0 64 996 周辺でしゅう雨
6 18:30 西南西 16 10km以上 1 60 996 弱いしゅう雪
6 18:00 西南西 15 10km以上 0 86 996 周辺でしゅう雨
6 17:30 南西 13 10km以上 0 64 995 周辺でしゅう雨
6 17:00 西南西 14 10km以上 0 86 995 周辺でしゅう雨
6 16:30 南西 12 10km以上 1 69 994 周辺でしゅう雨
6 16:00 南西 14 600m -1 93 994 しゅう雪
6 15:30 南南西 13 10km以上 1 75 994 周辺でしゅう雨
6 15:00 南西 13 10km以上 1 75 994 周辺でしゅう雨
6 14:30 南南西 12 10km以上 2 64 994 周辺でしゅう雨
6 14:00 南西 12 10km以上 2 55 994
6 13:30 南西 9 10km以上 2 64 994
6 13:00 南西 9 10km以上 2 64 994
6 12:30 南西 7 10km以上 2 55 994
6 12:00 南西 10 10km以上 2 55 994
6 11:30 南西 11 10km以上 2 60 994
6 11:00 南南西 9 10km以上 1 80 994
6 10:30 南西 10 10km以上 0 86 994
6 10:00 南南西 10 10km以上 1 86 994
6 09:30 南西 16 3000m -1 100 993 弱いしゅう雪
6 09:00 南南西 14 10km以上 2 75 992
6 08:30 南南西 14 10km以上 2 75 992
6 08:00 南南西 14 10km以上 2 69 992
6 07:30 南西 14 10km以上 3 65 991
6 07:00 南南西 12 10km以上 2 69 991 周辺でしゅう雨
6 06:30 南南西 13 10km以上 1 86 991 周辺でしゅう雨
6 06:00 南西 14 2000m 0 93 991 弱いしゅう雪
6 05:30 南南西 11 2000m 0 100 991 弱いしゅう雪
6 05:00 13 10km以上 1 93 991 弱いしゅう雪
6 04:30 南南西 12 10km以上 2 81 991 周辺でしゅう雨
6 04:00 10 10km以上 2 87 991 弱いしゅう雪
6 03:30 南南西 13 2000m 0 100 992 弱いしゅう雪
6 03:00 南南西 12 5000m 0 100 992 弱い雪
6 02:30 10 10km以上 1 86 992 弱い雪
6 02:00 南南西 11 10km以上 3 65 992
6 01:30 南南西 13 10km以上 3 56 992
6 01:00 南南西 13 10km以上 3 56 992
6 00:30 南西 15 10km以上 3 65 992
6 00:00 南西 15 10km以上 3 70 992
5 23:30 南西 19 10km以上 3 65 991
5 23:00 南西 20 10km以上 4 60 990 周辺でしゅう雨
5 22:30 南西 20 10km以上 4 70 989 周辺でしゅう雨
5 22:00 南西 22 10km以上 4 75 988 周辺でしゅう雨
5 21:30 南南西 24 10km以上 6 76 985 周辺でしゅう雨
5 21:00 22 10km以上 7 81 985 周辺でしゅう雨
5 20:30 18 8000m 7 93 984
5 20:00 16 10km以上 7 93 985
5 19:30 16 10km以上 8 87 986
5 19:00 15 10km以上 8 87 986
5 18:30 15 10km以上 8 87 986 周辺でしゅう雨
5 18:00 17 10km以上 8 93 987 周辺でしゅう雨
5 17:30 15 9000m 8 93 987 周辺でしゅう雨
5 17:00 15 3000m 8 100 987 弱い霧雨 もや
5 16:30 14 3000m 8 100 987 弱い霧雨 もや
5 16:00 14 3000m 8 100 987 弱い霧雨 もや
5 15:30 13 6000m 8 100 988 弱い霧雨 もや
5 15:00 14 6000m 8 100 989 弱い霧雨 もや
5 14:30 16 6000m 8 100 990 弱い霧雨 もや
5 14:00 16 5000m 8 100 990 弱い霧雨 もや
5 13:30 17 5000m 8 100 990 弱い霧雨 もや
5 13:00 18 5000m 8 100 990 弱い霧雨 もや
5 12:30 17 5000m 8 100 989 弱い霧雨 もや
5 12:00 17 5000m 8 100 990 弱い霧雨 もや
5 11:30 17 4000m 8 100 990 弱い霧雨 弱い雨 もや
5 11:00 17 5000m 8 93 990 弱い霧雨 弱い雨 もや
5 10:30 17 4000m 8 93 990 弱い霧雨 弱い雨 もや
5 10:00 16 3000m 7 100 991 弱い霧雨 弱い雨 もや
5 09:30 17 2000m 7 100 991 弱い霧雨 弱い雨 もや
5 09:00 南南東 15 8000m 7 93 991 弱い雨
5 08:30 南南東 16 8000m 6 100 993
5 08:00 16 10km以上 6 93 994
5 07:30 17 6000m 6 93 995
5 07:00 16 9000m 6 93 996 弱い雨
5 06:30 16 10km以上 6 93 997 弱い雨
5 06:00 15 10km以上 6 93 998
5 05:30 17 10km以上 6 87 999 弱い雨
5 05:00 16 8000m 6 93 999 弱い雨
5 04:30 16 8000m 6 93 1000 弱い雨
5 04:00 16 8000m 6 93 1001 弱い雨
5 03:30 15 8000m 5 100 1002
5 03:00 16 9000m 5 93 1003
5 02:30 15 10km以上 5 93 1003 弱い雨
5 02:00 15 10km以上 4 93 1004 弱い雨
5 01:30 南南東 14 10km以上 4 93 1005 弱い雨
5 01:00 南南東 13 10km以上 3 93 1007 弱い雨
5 00:30 11 10km以上 3 93 1007 弱い雨
5 00:00 11 10km以上 3 93 1008 弱い雨
4 23:30 10 10km以上 3 87 1009 弱い雨
4 23:00 10 10km以上 2 93 1010 弱い雨 弱い雪
4 22:30 南南東 7 10km以上 1 100 1010 弱い雨
4 22:00 7 10km以上 1 93 1011 弱い雨
4 21:30 7 10km以上 2 81 1012 弱い雨 弱い雪
4 21:00 7 10km以上 2 81 1012 周辺でしゅう雨
4 20:30 南西 11 10km以上 3 70 1012 弱いしゅう雪
4 20:00 南西 10 10km以上 3 65 1011 周辺でしゅう雨
BIKF 061900Z 24027KT 9999 VCSH FEW025CB SCT029 BKN049 M00/M06 Q0996
BIKF 061830Z 24031KT 9999 -SHSN FEW015CB SCT037 BKN069 01/M06 Q0996
BIKF 061800Z 24030G41KT 9999 VCSH FEW015CB BKN028 BKN063 M00/M02 Q0996
BIKF 061730Z 23026G37KT 9999 VCSH FEW011CB BKN019 BKN130 00/M06 Q0995
BIKF 061700Z 25028G38KT 9999 VCSH BKN013CB BKN130 00/M02 Q0995
BIKF 061630Z 23023G34KT 9999 VCSH FEW003 SCT016CB BKN130 01/M04 Q0994
BIKF 061600Z 23028G41KT 200V260 0600 R19/P1500D SHSN FEW003 BKN010CB BKN100 M01/M02 Q0994
BIKF 061530Z 20025KT 9999 VCSH SCT020TCU BKN100 01/M03 Q0994
BIKF 061500Z 22026KT 9999 VCSH SCT014TCU BKN026 BKN150 01/M03 Q0994
BIKF 061430Z 21024KT 9999 VCSH FEW020TCU SCT052 BKN083 02/M04 Q0994
BIKF 061400Z 22024KT 9999 FEW020TCU SCT043 02/M06 Q0994
BIKF 061330Z 22017KT 9999 FEW020TCU SCT041 BKN300 02/M04 Q0994
BIKF 061300Z 23017KT 9999 FEW020TCU SCT047 BKN300 02/M04 Q0994
BIKF 061230Z 23014G24KT 9999 FEW020TCU SCT033 BKN150 02/M06 Q0994
BIKF 061200Z 23019KT 9999 FEW020TCU SCT046 BKN120 02/M06 Q0994
BIKF 061130Z 23021KT 9999 FEW020TCU SCT034 BKN048 02/M05 Q0994
BIKF 061100Z 20018KT 9999 FEW011TCU SCT020TCU BKN065 01/M02 Q0994
BIKF 061030Z 22019KT 9999 FEW011TCU SCT020TCU BKN086 00/M02 Q0994
BIKF 061000Z 21019KT 9999 FEW012TCU SCT086 01/M01 Q0994
BIKF 060930Z 23032KT 3000 -SHSN FEW004 BKN017TCU BKN031 M01/M01 Q0993
BIKF 060900Z 21028KT 9999 FEW018TCU SCT031 BKN110 02/M02 Q0992
BIKF 060830Z 20027G37KT 9999 SCT018TCU BKN035 02/M02 Q0992
BIKF 060800Z 21028KT 9999 FEW034CB SCT048 02/M03 Q0992
BIKF 060730Z 22027G37KT 9999 FEW034CB SCT045 BKN098 03/M03 Q0991
BIKF 060700Z 21024KT 9999 VCSH FEW026CB SCT045 BKN093 02/M03 Q0991
BIKF 060630Z 21025G37KT 9999 VCSH SCT022CB BKN044CB 01/M01 Q0991
BIKF 060600Z 22028G41KT 2000 -SHSN SCT008CB BKN018 M00/M01 Q0991
BIKF 060530Z 20022KT 180V240 2000 -SHSN BKN012CB OVC018 00/00 Q0991
BIKF 060500Z 19026KT 9999 -SHSN SCT018CB BKN038 01/00 Q0991
BIKF 060430Z 20023KT 9999 VCSH SCT032CB BKN048 02/M01 Q0991
BIKF 060400Z 19019KT 9999 -SHSN BKN012CB BKN024 02/00 Q0991
BIKF 060330Z 21025G42KT 2000 -SHSN BKN004CB OVC012 00/00 Q0992
BIKF 060300Z 21023KT 5000 -SN BKN006CB OVC012 00/00 Q0992
BIKF 060230Z 18020KT 9999 -SN SCT021 BKN038 01/M01 Q0992
BIKF 060200Z 20022KT 9999 SCT043 BKN066 03/M03 Q0992
BIKF 060130Z 21026KT 9999 SCT042 03/M05 Q0992
BIKF 060100Z 21026KT 9999 SCT042 03/M05 Q0992
BIKF 060030Z 22030G42KT 9999 BKN042 BKN250 03/M03 Q0992
BIKF 060000Z 23030G40KT 9999 SCT038 BKN250 03/M02 Q0992
BIKF 052330Z 22036G46KT 9999 SCT031 BKN070 03/M03 Q0991
BIKF 052300Z 23038G48KT 9999 VCSH FEW013 SCT026 BKN039 04/M03 Q0990
BIKF 052230Z 23038G49KT 9999 VCSH FEW013CB SCT020 BKN036 04/M01 Q0989
BIKF 052200Z 22042G52KT 9999 VCSH FEW013CB SCT020 BKN036 04/00 Q0988 RESHRA
BIKF 052130Z 20046G61KT 9999 VCSH FEW011 SCT020 BKN036 06/02 Q0985
BIKF 052100Z 19043G54KT 9999 VCSH BKN011 BKN020 BKN033 07/04 Q0985
BIKF 052030Z 17035KT 8000 RA FEW006 BKN020 BKN033 07/06 Q0984
BIKF 052000Z 18031KT 9999 FEW006 BKN020 BKN033 07/06 Q0985
BIKF 051930Z 18031G42KT 9999 FEW006 BKN020 BKN042 08/06 Q0986
BIKF 051900Z 18029KT 9999 SCT006 BKN020 BKN042 08/06 Q0986
BIKF 051830Z 18030G41KT 9999 VCSH SCT006 BKN026 BKN048 08/06 Q0986
BIKF 051800Z 18034G45KT 9999 VCSH BKN006 OVC023 08/07 Q0987
BIKF 051730Z 18029G41KT 9000 VCSH BKN006 OVC023 08/07 Q0987
BIKF 051700Z 18029G39KT 3000 -DZ BR BKN004 OVC023 08/08 Q0987
BIKF 051630Z 17028KT 3000 -DZ BR OVC004 08/08 Q0987
BIKF 051600Z 17028KT 3000 -DZ BR OVC004 08/08 Q0987
BIKF 051530Z 18026KT 6000 -DZ BR OVC006 08/08 Q0988
BIKF 051500Z 18028KT 6000 -DZ BR OVC007 08/08 Q0989
BIKF 051430Z 18031G42KT 6000 -DZ BR OVC007 08/08 Q0990
BIKF 051400Z 18032KT 5000 -DZ BR OVC007 08/08 Q0990
BIKF 051330Z 19034G44KT 5000 -DZ BR OVC008 08/08 Q0990
BIKF 051300Z 19035KT 5000 -DZ BR OVC008 08/08 Q0990
BIKF 051230Z 19034KT 5000 -DZ BR OVC008 08/08 Q0989
BIKF 051200Z 18034KT 5000 -DZ BR OVC007 08/08 Q0990
BIKF 051130Z 18033G43KT 4000 -DZRA BR OVC007 08/08 Q0990
BIKF 051100Z 18033KT 5000 -DZRA BR OVC007 08/07 Q0990
BIKF 051030Z 17033KT 4000 -DZRA BR OVC005 08/07 Q0990
BIKF 051000Z 17031G43KT 3000 -DZRA BR OVC006 07/07 Q0991
BIKF 050930Z 17033KT 2000 R19/1100N -DZRA BR OVC008 07/07 Q0991
BIKF 050900Z 16030KT 8000 -RA OVC011 07/06 Q0991
BIKF 050830Z 16031KT 8000 RA OVC012 06/06 Q0993
BIKF 050800Z 17032G44KT 9999 RA SCT016 OVC028 06/05 Q0994
BIKF 050730Z 17034G47KT 6000 RA SCT014 OVC024 06/05 Q0995
BIKF 050700Z 17031G41KT 9000 -RA SCT012 OVC018 06/05 Q0996
BIKF 050630Z 17032G42KT 9999 -RA SCT016 BKN026 OVC032 06/05 Q0997
BIKF 050600Z 17029KT 9999 RA BKN017 OVC026 06/05 Q0998
BIKF 050530Z 18034G46KT 9999 -RA BKN015 OVC024 06/04 Q0999
BIKF 050500Z 17032G45KT 8000 -RA SCT018 OVC024 06/05 Q0999
BIKF 050430Z 17031G45KT 8000 -RA OVC018 06/05 Q1000
BIKF 050400Z 17031KT 8000 -RA OVC018 06/05 Q1001
BIKF 050330Z 17029KT 8000 RA OVC018 05/05 Q1002
BIKF 050300Z 17032G43KT 9000 RA SCT014 OVC020 05/04 Q1003
BIKF 050230Z 17029G39KT 9999 -RA SCT012 OVC019 05/04 Q1003
BIKF 050200Z 17030G41KT 9999 -RA SCT012 OVC018 04/03 Q1004
BIKF 050130Z 16028G41KT 9999 -RA SCT012 OVC018 04/03 Q1005
BIKF 050100Z 16026G37KT 9999 -RA SCT013 OVC018 03/02 Q1007
BIKF 050030Z 17021KT 9999 -RA BKN013 OVC018 03/02 Q1007
BIKF 050000Z 17021KT 9999 -RA BKN015 OVC024 03/02 Q1008
BIKF 042330Z 18019KT 9999 -RA BKN013 BKN024 03/01 Q1009
BIKF 042300Z 18019KT 9999 -RASN BKN011 OVC024 02/01 Q1010
BIKF 042230Z 16013KT 9999 -RA BKN008 OVC024 01/01 Q1010
BIKF 042200Z 18013KT 9999 -RA SCT010 BKN026 01/00 Q1011
BIKF 042130Z 17013KT 9999 -RASN FEW010CB BKN026 02/M01 Q1012
BIKF 042100Z 19013KT 9999 VCSH FEW010CB BKN031 BKN100 02/M01 Q1012
BIKF 042030Z 22021G31KT 9999 -SHSN FEW019CB BKN041 BKN100 03/M02 Q1012
BIKF 042000Z 22020KT 9999 VCSH FEW015CB SCT041 BKN100 03/M03 Q1011